Alice International Airport Alice US
ICAO: KALI
IATA: ALI
Category: Medium
Scheduled Services: No

Elevation: 178 ft
TransAlt. 18000 ft.

Airport Communications:
KINGSVILLE APP:119.9
ASOS:119.225
KINGSVILLE DEP:119.9
SAN ANGELO RDO:122.6
CTAF/UNICOM:123

KALI Zoom In..

Runways:

(A) RW 13 length 5997 ft width 100 ft
LOC 109.30 / hdg 128

(B) RW 17 length 4490 ft width 100 ft
LOC 109.30 / hdg 173

(C) RW 31 length 5997 ft width 100 ft
LOC 109.30 / hdg 308

(D) RW 35 length 4490 ft width 100 ft
LOC 109.30 / hdg 353

Location; KALI
Day. 22 / Time. 03.53 Zulu
* Altimeter: 29.90
* Temperature: 19° c. 66.2°f.
* Wind from: 170° Speed 03 kn.
Dewpoint: 17° c.
Visibility: 10 Statute Miles.
Clouds: Scattered 4000 ft.

KALI 220353Z AUTO 17003KT 10SM SCT040 19/17 A2990 RMK AO2 SLP122 T01890167


Wind From 170°
Speed 03 kn.

jpsM music video
CHECK IT OUT

jpsM - It Moves..

 
jpsmedia.com for Web Design  worldairports.se 2018   terms of use